sensor_id;sensor_type;location;lat;lon;timestamp;pressure;altitude;pressure_sealevel;temperature
19282;BMP180;9774;52.034;5.342;2022-10-31T00:00:55;101883.00;;;18.50
19282;BMP180;9774;52.034;5.342;2022-10-31T00:03:22;101880.00;;;18.50
19282;BMP180;9774;52.034;5.342;2022-10-31T00:05:51;101888.00;;;18.50
19282;BMP180;9774;52.034;5.342;2022-10-31T00:08:19;101886.00;;;18.50
19282;BMP180;9774;52.034;5.342;2022-10-31T00:10:47;101885.00;;;18.50
19282;BMP180;9774;52.034;5.342;2022-10-31T00:13:14;101884.00;;;18.50
19282;BMP180;9774;52.034;5.342;2022-10-31T00:15:42;101887.00;;;18.40
19282;BMP180;9774;52.034;5.342;2022-10-31T00:18:10;101886.00;;;18.40
19282;BMP180;9774;52.034;5.342;2022-10-31T00:20:38;101878.00;;;18.40
19282;BMP180;9774;52.034;5.342;2022-10-31T00:23:07;101889.00;;;18.40
19282;BMP180;9774;52.034;5.342;2022-10-31T00:25:40;101882.00;;;18.40
19282;BMP180;9774;52.034;5.342;2022-10-31T00:28:08;101891.00;;;18.40
19282;BMP180;9774;52.034;5.342;2022-10-31T00:30:36;101899.00;;;18.40
19282;BMP180;9774;52.034;5.342;2022-10-31T00:33:04;101890.00;;;18.40
19282;BMP180;9774;52.034;5.342;2022-10-31T00:35:31;101891.00;;;18.40
19282;BMP180;9774;52.034;5.342;2022-10-31T00:37:58;101893.00;;;18.40
19282;BMP180;9774;52.034;5.342;2022-10-31T00:40:27;101890.00;;;18.30
19282;BMP180;9774;52.034;5.342;2022-10-31T00:42:54;101906.00;;;18.40
19282;BMP180;9774;52.034;5.342;2022-10-31T00:45:22;101896.00;;;18.40
19282;BMP180;9774;52.034;5.342;2022-10-31T00:47:49;101897.00;;;18.30
19282;BMP180;9774;52.034;5.342;2022-10-31T00:50:17;101902.00;;;18.30
19282;BMP180;9774;52.034;5.342;2022-10-31T00:52:44;101908.00;;;18.30
19282;BMP180;9774;52.034;5.342;2022-10-31T00:55:11;101904.00;;;18.30
19282;BMP180;9774;52.034;5.342;2022-10-31T00:57:40;101904.00;;;18.30
19282;BMP180;9774;52.034;5.342;2022-10-31T01:00:08;101900.00;;;18.30
19282;BMP180;9774;52.034;5.342;2022-10-31T01:02:36;101903.00;;;18.30
19282;BMP180;9774;52.034;5.342;2022-10-31T01:05:03;101900.00;;;18.30
19282;BMP180;9774;52.034;5.342;2022-10-31T01:07:31;101895.00;;;18.30
19282;BMP180;9774;52.034;5.342;2022-10-31T01:09:58;101899.00;;;18.20
19282;BMP180;9774;52.034;5.342;2022-10-31T01:12:25;101894.00;;;18.20
19282;BMP180;9774;52.034;5.342;2022-10-31T01:14:54;101894.00;;;18.20
19282;BMP180;9774;52.034;5.342;2022-10-31T01:17:21;101883.00;;;18.20
19282;BMP180;9774;52.034;5.342;2022-10-31T01:19:51;101877.00;;;18.20
19282;BMP180;9774;52.034;5.342;2022-10-31T01:22:18;101883.00;;;18.20
19282;BMP180;9774;52.034;5.342;2022-10-31T01:24:45;101865.00;;;18.20
19282;BMP180;9774;52.034;5.342;2022-10-31T01:27:12;101865.00;;;18.10
19282;BMP180;9774;52.034;5.342;2022-10-31T01:29:40;101874.00;;;18.10
19282;BMP180;9774;52.034;5.342;2022-10-31T01:32:10;101862.00;;;18.10
19282;BMP180;9774;52.034;5.342;2022-10-31T01:34:38;101861.00;;;18.10
19282;BMP180;9774;52.034;5.342;2022-10-31T01:37:05;101863.00;;;18.10
19282;BMP180;9774;52.034;5.342;2022-10-31T01:39:33;101857.00;;;18.00
19282;BMP180;9774;52.034;5.342;2022-10-31T01:42:00;101864.00;;;18.00
19282;BMP180;9774;52.034;5.342;2022-10-31T01:44:50;101861.00;;;17.90
19282;BMP180;9774;52.034;5.342;2022-10-31T01:50:15;101856.00;;;17.90
19282;BMP180;9774;52.034;5.342;2022-10-31T01:52:47;101852.00;;;17.90
19282;BMP180;9774;52.034;5.342;2022-10-31T01:55:20;101847.00;;;17.90
19282;BMP180;9774;52.034;5.342;2022-10-31T01:57:50;101858.00;;;17.80
19282;BMP180;9774;52.034;5.342;2022-10-31T02:00:19;101862.00;;;17.80
19282;BMP180;9774;52.034;5.342;2022-10-31T02:02:49;101855.00;;;17.80
19282;BMP180;9774;52.034;5.342;2022-10-31T02:05:19;101858.00;;;17.80
19282;BMP180;9774;52.034;5.342;2022-10-31T02:07:53;101862.00;;;17.70
19282;BMP180;9774;52.034;5.342;2022-10-31T02:10:22;101854.00;;;17.70
19282;BMP180;9774;52.034;5.342;2022-10-31T02:12:51;101857.00;;;17.70
19282;BMP180;9774;52.034;5.342;2022-10-31T02:15:19;101857.00;;;17.70
19282;BMP180;9774;52.034;5.342;2022-10-31T02:17:48;101851.00;;;17.60
19282;BMP180;9774;52.034;5.342;2022-10-31T02:20:17;101860.00;;;17.60
19282;BMP180;9774;52.034;5.342;2022-10-31T02:26:10;101864.00;;;17.40
19282;BMP180;9774;52.034;5.342;2022-10-31T02:28:58;101856.00;;;17.40
19282;BMP180;9774;52.034;5.342;2022-10-31T02:31:35;101862.00;;;17.40
19282;BMP180;9774;52.034;5.342;2022-10-31T02:34:13;101855.00;;;17.40
19282;BMP180;9774;52.034;5.342;2022-10-31T02:36:49;101855.00;;;17.40
19282;BMP180;9774;52.034;5.342;2022-10-31T02:39:23;101857.00;;;17.40
19282;BMP180;9774;52.034;5.342;2022-10-31T02:41:57;101862.00;;;17.40
19282;BMP180;9774;52.034;5.342;2022-10-31T02:44:31;101862.00;;;17.30
19282;BMP180;9774;52.034;5.342;2022-10-31T02:47:06;101855.00;;;17.30
19282;BMP180;9774;52.034;5.342;2022-10-31T02:49:39;101863.00;;;17.30
19282;BMP180;9774;52.034;5.342;2022-10-31T02:52:16;101859.00;;;17.20
19282;BMP180;9774;52.034;5.342;2022-10-31T02:54:45;101858.00;;;17.20
19282;BMP180;9774;52.034;5.342;2022-10-31T02:57:13;101859.00;;;17.20
19282;BMP180;9774;52.034;5.342;2022-10-31T02:59:46;101855.00;;;17.20
19282;BMP180;9774;52.034;5.342;2022-10-31T03:02:44;101865.00;;;17.10
19282;BMP180;9774;52.034;5.342;2022-10-31T03:05:28;101862.00;;;17.10
19282;BMP180;9774;52.034;5.342;2022-10-31T03:08:02;101858.00;;;17.10
19282;BMP180;9774;52.034;5.342;2022-10-31T03:10:38;101869.00;;;17.10
19282;BMP180;9774;52.034;5.342;2022-10-31T03:13:12;101858.00;;;17.10
19282;BMP180;9774;52.034;5.342;2022-10-31T03:15:44;101865.00;;;17.10
19282;BMP180;9774;52.034;5.342;2022-10-31T03:18:16;101871.00;;;17.00
19282;BMP180;9774;52.034;5.342;2022-10-31T03:20:50;101869.00;;;17.00
19282;BMP180;9774;52.034;5.342;2022-10-31T03:23:22;101858.00;;;17.00
19282;BMP180;9774;52.034;5.342;2022-10-31T03:25:51;101865.00;;;17.00
19282;BMP180;9774;52.034;5.342;2022-10-31T03:28:22;101861.00;;;17.00
19282;BMP180;9774;52.034;5.342;2022-10-31T03:30:52;101869.00;;;17.00
19282;BMP180;9774;52.034;5.342;2022-10-31T03:33:24;101863.00;;;17.00
19282;BMP180;9774;52.034;5.342;2022-10-31T03:35:57;101861.00;;;16.90
19282;BMP180;9774;52.034;5.342;2022-10-31T03:38:25;101858.00;;;17.00
19282;BMP180;9774;52.034;5.342;2022-10-31T03:40:55;101855.00;;;16.90
19282;BMP180;9774;52.034;5.342;2022-10-31T03:43:28;101862.00;;;16.90
19282;BMP180;9774;52.034;5.342;2022-10-31T03:45:57;101869.00;;;16.90
19282;BMP180;9774;52.034;5.342;2022-10-31T03:48:26;101870.00;;;16.90
19282;BMP180;9774;52.034;5.342;2022-10-31T03:51:01;101862.00;;;16.80
19282;BMP180;9774;52.034;5.342;2022-10-31T03:53:33;101860.00;;;16.80
19282;BMP180;9774;52.034;5.342;2022-10-31T03:56:05;101861.00;;;16.80
19282;BMP180;9774;52.034;5.342;2022-10-31T03:58:36;101862.00;;;16.80
19282;BMP180;9774;52.034;5.342;2022-10-31T04:01:06;101870.00;;;16.80
19282;BMP180;9774;52.034;5.342;2022-10-31T04:03:37;101861.00;;;16.80
19282;BMP180;9774;52.034;5.342;2022-10-31T04:06:08;101864.00;;;16.80
19282;BMP180;9774;52.034;5.342;2022-10-31T04:08:40;101870.00;;;16.70
19282;BMP180;9774;52.034;5.342;2022-10-31T04:11:10;101865.00;;;16.80
19282;BMP180;9774;52.034;5.342;2022-10-31T04:13:39;101864.00;;;16.80
19282;BMP180;9774;52.034;5.342;2022-10-31T04:16:08;101863.00;;;16.80
19282;BMP180;9774;52.034;5.342;2022-10-31T04:18:37;101859.00;;;16.70
19282;BMP180;9774;52.034;5.342;2022-10-31T04:21:07;101860.00;;;16.70
19282;BMP180;9774;52.034;5.342;2022-10-31T04:23:35;101858.00;;;16.70
19282;BMP180;9774;52.034;5.342;2022-10-31T04:26:03;101861.00;;;16.70
19282;BMP180;9774;52.034;5.342;2022-10-31T04:28:31;101859.00;;;16.70
19282;BMP180;9774;52.034;5.342;2022-10-31T04:30:59;101855.00;;;16.70
19282;BMP180;9774;52.034;5.342;2022-10-31T04:33:26;101862.00;;;16.70
19282;BMP180;9774;52.034;5.342;2022-10-31T04:35:55;101862.00;;;16.70
19282;BMP180;9774;52.034;5.342;2022-10-31T04:38:22;101857.00;;;16.70
19282;BMP180;9774;52.034;5.342;2022-10-31T04:40:50;101853.00;;;16.70
19282;BMP180;9774;52.034;5.342;2022-10-31T04:43:18;101854.00;;;16.70
19282;BMP180;9774;52.034;5.342;2022-10-31T04:45:45;101852.00;;;16.70
19282;BMP180;9774;52.034;5.342;2022-10-31T04:48:12;101848.00;;;16.70
19282;BMP180;9774;52.034;5.342;2022-10-31T04:50:40;101851.00;;;16.70
19282;BMP180;9774;52.034;5.342;2022-10-31T04:53:08;101845.00;;;16.60
19282;BMP180;9774;52.034;5.342;2022-10-31T04:55:36;101845.00;;;16.70
19282;BMP180;9774;52.034;5.342;2022-10-31T04:58:03;101843.00;;;16.60
19282;BMP180;9774;52.034;5.342;2022-10-31T05:00:30;101848.00;;;16.70
19282;BMP180;9774;52.034;5.342;2022-10-31T05:02:58;101846.00;;;16.60
19282;BMP180;9774;52.034;5.342;2022-10-31T05:05:27;101844.00;;;16.60
19282;BMP180;9774;52.034;5.342;2022-10-31T05:07:55;101851.00;;;16.70
19282;BMP180;9774;52.034;5.342;2022-10-31T05:10:26;101847.00;;;16.60
19282;BMP180;9774;52.034;5.342;2022-10-31T05:12:54;101846.00;;;16.60
19282;BMP180;9774;52.034;5.342;2022-10-31T05:15:23;101841.00;;;16.60
19282;BMP180;9774;52.034;5.342;2022-10-31T05:17:51;101840.00;;;16.60
19282;BMP180;9774;52.034;5.342;2022-10-31T05:20:20;101840.00;;;16.60
19282;BMP180;9774;52.034;5.342;2022-10-31T05:22:49;101844.00;;;16.70
19282;BMP180;9774;52.034;5.342;2022-10-31T05:25:19;101837.00;;;16.60
19282;BMP180;9774;52.034;5.342;2022-10-31T05:27:49;101837.00;;;16.60
19282;BMP180;9774;52.034;5.342;2022-10-31T05:30:19;101831.00;;;16.70
19282;BMP180;9774;52.034;5.342;2022-10-31T05:32:48;101829.00;;;16.70
19282;BMP180;9774;52.034;5.342;2022-10-31T05:35:18;101831.00;;;16.70
19282;BMP180;9774;52.034;5.342;2022-10-31T05:37:45;101832.00;;;16.70
19282;BMP180;9774;52.034;5.342;2022-10-31T05:40:15;101830.00;;;16.70
19282;BMP180;9774;52.034;5.342;2022-10-31T05:42:43;101841.00;;;16.70
19282;BMP180;9774;52.034;5.342;2022-10-31T05:45:14;101839.00;;;16.70
19282;BMP180;9774;52.034;5.342;2022-10-31T05:47:42;101841.00;;;16.80
19282;BMP180;9774;52.034;5.342;2022-10-31T05:50:10;101832.00;;;16.80
19282;BMP180;9774;52.034;5.342;2022-10-31T05:52:37;101836.00;;;16.80
19282;BMP180;9774;52.034;5.342;2022-10-31T05:55:05;101831.00;;;16.80
19282;BMP180;9774;52.034;5.342;2022-10-31T05:57:33;101830.00;;;16.80
19282;BMP180;9774;52.034;5.342;2022-10-31T06:00:01;101819.00;;;16.90
19282;BMP180;9774;52.034;5.342;2022-10-31T06:02:29;101825.00;;;16.90
19282;BMP180;9774;52.034;5.342;2022-10-31T06:05:00;101824.00;;;16.90
19282;BMP180;9774;52.034;5.342;2022-10-31T06:07:31;101823.00;;;16.90
19282;BMP180;9774;52.034;5.342;2022-10-31T06:09:59;101830.00;;;16.90
19282;BMP180;9774;52.034;5.342;2022-10-31T06:12:26;101822.00;;;17.00
19282;BMP180;9774;52.034;5.342;2022-10-31T06:14:54;101819.00;;;17.00
19282;BMP180;9774;52.034;5.342;2022-10-31T06:17:21;101822.00;;;17.00
19282;BMP180;9774;52.034;5.342;2022-10-31T06:19:50;101824.00;;;17.00
19282;BMP180;9774;52.034;5.342;2022-10-31T06:22:18;101826.00;;;17.00
19282;BMP180;9774;52.034;5.342;2022-10-31T06:24:46;101816.00;;;17.10
19282;BMP180;9774;52.034;5.342;2022-10-31T06:27:13;101820.00;;;17.10
19282;BMP180;9774;52.034;5.342;2022-10-31T06:29:40;101811.00;;;17.10
19282;BMP180;9774;52.034;5.342;2022-10-31T06:32:10;101823.00;;;17.10
19282;BMP180;9774;52.034;5.342;2022-10-31T06:34:38;101824.00;;;17.10
19282;BMP180;9774;52.034;5.342;2022-10-31T06:37:07;101829.00;;;17.10
19282;BMP180;9774;52.034;5.342;2022-10-31T06:39:35;101833.00;;;17.10
19282;BMP180;9774;52.034;5.342;2022-10-31T06:42:03;101832.00;;;17.20
19282;BMP180;9774;52.034;5.342;2022-10-31T06:44:31;101830.00;;;17.20
19282;BMP180;9774;52.034;5.342;2022-10-31T06:46:58;101833.00;;;17.20
19282;BMP180;9774;52.034;5.342;2022-10-31T06:49:26;101826.00;;;17.20
19282;BMP180;9774;52.034;5.342;2022-10-31T06:51:53;101831.00;;;17.20
19282;BMP180;9774;52.034;5.342;2022-10-31T06:54:21;101829.00;;;17.20
19282;BMP180;9774;52.034;5.342;2022-10-31T06:56:49;101823.00;;;17.20
19282;BMP180;9774;52.034;5.342;2022-10-31T06:59:16;101835.00;;;17.30
19282;BMP180;9774;52.034;5.342;2022-10-31T07:01:44;101828.00;;;17.30
19282;BMP180;9774;52.034;5.342;2022-10-31T07:04:11;101836.00;;;17.30
19282;BMP180;9774;52.034;5.342;2022-10-31T07:06:38;101840.00;;;17.30
19282;BMP180;9774;52.034;5.342;2022-10-31T07:09:06;101834.00;;;17.30
19282;BMP180;9774;52.034;5.342;2022-10-31T07:11:35;101835.00;;;17.30
19282;BMP180;9774;52.034;5.342;2022-10-31T07:14:02;101840.00;;;17.40
19282;BMP180;9774;52.034;5.342;2022-10-31T07:16:29;101831.00;;;17.40
19282;BMP180;9774;52.034;5.342;2022-10-31T07:18:56;101823.00;;;17.40
19282;BMP180;9774;52.034;5.342;2022-10-31T07:21:24;101823.00;;;17.40
19282;BMP180;9774;52.034;5.342;2022-10-31T07:23:51;101826.00;;;17.50
19282;BMP180;9774;52.034;5.342;2022-10-31T07:26:18;101837.00;;;17.50
19282;BMP180;9774;52.034;5.342;2022-10-31T07:28:47;101834.00;;;17.50
19282;BMP180;9774;52.034;5.342;2022-10-31T07:31:14;101845.00;;;17.50
19282;BMP180;9774;52.034;5.342;2022-10-31T07:33:42;101843.00;;;17.50
19282;BMP180;9774;52.034;5.342;2022-10-31T07:36:09;101838.00;;;17.50
19282;BMP180;9774;52.034;5.342;2022-10-31T07:38:36;101836.00;;;17.60
19282;BMP180;9774;52.034;5.342;2022-10-31T07:41:04;101838.00;;;17.60
19282;BMP180;9774;52.034;5.342;2022-10-31T07:43:31;101842.00;;;17.60
19282;BMP180;9774;52.034;5.342;2022-10-31T07:45:59;101845.00;;;17.60
19282;BMP180;9774;52.034;5.342;2022-10-31T07:48:27;101856.00;;;17.70
19282;BMP180;9774;52.034;5.342;2022-10-31T07:50:55;101846.00;;;17.70
19282;BMP180;9774;52.034;5.342;2022-10-31T07:53:22;101848.00;;;17.70
19282;BMP180;9774;52.034;5.342;2022-10-31T07:55:50;101853.00;;;17.70
19282;BMP180;9774;52.034;5.342;2022-10-31T07:58:17;101850.00;;;17.80
19282;BMP180;9774;52.034;5.342;2022-10-31T08:00:46;101848.00;;;17.80
19282;BMP180;9774;52.034;5.342;2022-10-31T08:03:16;101858.00;;;17.80
19282;BMP180;9774;52.034;5.342;2022-10-31T08:05:44;101857.00;;;17.80
19282;BMP180;9774;52.034;5.342;2022-10-31T08:08:12;101869.00;;;17.90
19282;BMP180;9774;52.034;5.342;2022-10-31T08:10:40;101860.00;;;17.90
19282;BMP180;9774;52.034;5.342;2022-10-31T08:13:09;101859.00;;;17.90
19282;BMP180;9774;52.034;5.342;2022-10-31T08:15:38;101858.00;;;18.00
19282;BMP180;9774;52.034;5.342;2022-10-31T08:18:11;101855.00;;;18.00
19282;BMP180;9774;52.034;5.342;2022-10-31T08:20:40;101856.00;;;18.00
19282;BMP180;9774;52.034;5.342;2022-10-31T08:23:08;101857.00;;;18.10
19282;BMP180;9774;52.034;5.342;2022-10-31T08:25:36;101848.00;;;18.10
19282;BMP180;9774;52.034;5.342;2022-10-31T08:28:04;101850.00;;;18.20
19282;BMP180;9774;52.034;5.342;2022-10-31T08:30:33;101850.00;;;18.20
19282;BMP180;9774;52.034;5.342;2022-10-31T08:33:02;101853.00;;;18.30
19282;BMP180;9774;52.034;5.342;2022-10-31T08:35:30;101856.00;;;18.30
19282;BMP180;9774;52.034;5.342;2022-10-31T08:37:59;101853.00;;;18.40
19282;BMP180;9774;52.034;5.342;2022-10-31T08:40:28;101847.00;;;18.40
19282;BMP180;9774;52.034;5.342;2022-10-31T08:43:02;101849.00;;;18.40
19282;BMP180;9774;52.034;5.342;2022-10-31T08:45:31;101851.00;;;18.40
19282;BMP180;9774;52.034;5.342;2022-10-31T08:48:00;101844.00;;;18.50
19282;BMP180;9774;52.034;5.342;2022-10-31T08:50:28;101835.00;;;18.50
19282;BMP180;9774;52.034;5.342;2022-10-31T08:53:01;101830.00;;;18.50
19282;BMP180;9774;52.034;5.342;2022-10-31T08:55:29;101834.00;;;18.60
19282;BMP180;9774;52.034;5.342;2022-10-31T08:57:56;101837.00;;;18.70
19282;BMP180;9774;52.034;5.342;2022-10-31T09:00:24;101835.00;;;18.70
19282;BMP180;9774;52.034;5.342;2022-10-31T09:02:56;101830.00;;;18.70
19282;BMP180;9774;52.034;5.342;2022-10-31T09:05:24;101836.00;;;18.80
19282;BMP180;9774;52.034;5.342;2022-10-31T09:07:55;101833.00;;;18.80
19282;BMP180;9774;52.034;5.342;2022-10-31T09:10:25;101834.00;;;18.90
19282;BMP180;9774;52.034;5.342;2022-10-31T09:12:56;101827.00;;;19.00
19282;BMP180;9774;52.034;5.342;2022-10-31T09:15:23;101825.00;;;19.10
19282;BMP180;9774;52.034;5.342;2022-10-31T09:17:51;101812.00;;;19.10
19282;BMP180;9774;52.034;5.342;2022-10-31T09:20:18;101812.00;;;19.20
19282;BMP180;9774;52.034;5.342;2022-10-31T09:22:46;101804.00;;;19.30
19282;BMP180;9774;52.034;5.342;2022-10-31T09:25:13;101793.00;;;19.30
19282;BMP180;9774;52.034;5.342;2022-10-31T09:27:42;101792.00;;;19.40
19282;BMP180;9774;52.034;5.342;2022-10-31T09:30:10;101781.00;;;19.40
19282;BMP180;9774;52.034;5.342;2022-10-31T09:32:37;101783.00;;;19.50
19282;BMP180;9774;52.034;5.342;2022-10-31T09:35:05;101789.00;;;19.50
19282;BMP180;9774;52.034;5.342;2022-10-31T09:37:32;101797.00;;;19.60
19282;BMP180;9774;52.034;5.342;2022-10-31T09:40:00;101800.00;;;19.70
19282;BMP180;9774;52.034;5.342;2022-10-31T09:42:47;101791.00;;;19.60
19282;BMP180;9774;52.034;5.342;2022-10-31T09:45:24;101791.00;;;19.80
19282;BMP180;9774;52.034;5.342;2022-10-31T09:48:02;101790.00;;;19.80
19282;BMP180;9774;52.034;5.342;2022-10-31T09:50:40;101795.00;;;19.90
19282;BMP180;9774;52.034;5.342;2022-10-31T09:53:21;101792.00;;;20.00
19282;BMP180;9774;52.034;5.342;2022-10-31T09:55:50;101777.00;;;20.10
19282;BMP180;9774;52.034;5.342;2022-10-31T09:58:23;101777.00;;;20.20
19282;BMP180;9774;52.034;5.342;2022-10-31T10:00:50;101768.00;;;20.30
19282;BMP180;9774;52.034;5.342;2022-10-31T10:03:27;101773.00;;;20.40
19282;BMP180;9774;52.034;5.342;2022-10-31T10:06:04;101766.00;;;20.50
19282;BMP180;9774;52.034;5.342;2022-10-31T10:08:34;101769.00;;;20.60
19282;BMP180;9774;52.034;5.342;2022-10-31T10:11:16;101762.00;;;20.60
19282;BMP180;9774;52.034;5.342;2022-10-31T10:13:57;101761.00;;;20.70
19282;BMP180;9774;52.034;5.342;2022-10-31T10:16:40;101766.00;;;20.70
19282;BMP180;9774;52.034;5.342;2022-10-31T10:19:21;101764.00;;;20.80
19282;BMP180;9774;52.034;5.342;2022-10-31T10:21:56;101758.00;;;20.90
19282;BMP180;9774;52.034;5.342;2022-10-31T10:24:33;101757.00;;;20.90
19282;BMP180;9774;52.034;5.342;2022-10-31T10:27:11;101752.00;;;21.00
19282;BMP180;9774;52.034;5.342;2022-10-31T10:29:47;101762.00;;;21.00
19282;BMP180;9774;52.034;5.342;2022-10-31T10:32:21;101748.00;;;21.00
19282;BMP180;9774;52.034;5.342;2022-10-31T10:34:51;101754.00;;;21.10
19282;BMP180;9774;52.034;5.342;2022-10-31T10:37:25;101748.00;;;21.10
19282;BMP180;9774;52.034;5.342;2022-10-31T10:40:07;101741.00;;;21.20
19282;BMP180;9774;52.034;5.342;2022-10-31T10:42:35;101737.00;;;21.20
19282;BMP180;9774;52.034;5.342;2022-10-31T10:45:22;101718.00;;;21.20
19282;BMP180;9774;52.034;5.342;2022-10-31T10:48:11;101705.00;;;21.30
19282;BMP180;9774;52.034;5.342;2022-10-31T10:50:44;101702.00;;;21.30
19282;BMP180;9774;52.034;5.342;2022-10-31T10:53:24;101701.00;;;21.30
19282;BMP180;9774;52.034;5.342;2022-10-31T10:56:03;101697.00;;;21.40
19282;BMP180;9774;52.034;5.342;2022-10-31T10:58:34;101693.00;;;21.50
19282;BMP180;9774;52.034;5.342;2022-10-31T11:01:10;101682.00;;;21.40
19282;BMP180;9774;52.034;5.342;2022-10-31T11:03:38;101670.00;;;21.50
19282;BMP180;9774;52.034;5.342;2022-10-31T11:06:18;101667.00;;;21.50
19282;BMP180;9774;52.034;5.342;2022-10-31T11:08:48;101666.00;;;21.60
19282;BMP180;9774;52.034;5.342;2022-10-31T11:11:24;101682.00;;;21.50
19282;BMP180;9774;52.034;5.342;2022-10-31T11:13:57;101681.00;;;21.60
19282;BMP180;9774;52.034;5.342;2022-10-31T11:16:32;101680.00;;;21.60
19282;BMP180;9774;52.034;5.342;2022-10-31T11:19:09;101688.00;;;21.60
19282;BMP180;9774;52.034;5.342;2022-10-31T11:21:42;101686.00;;;21.70
19282;BMP180;9774;52.034;5.342;2022-10-31T11:24:15;101683.00;;;21.70
19282;BMP180;9774;52.034;5.342;2022-10-31T11:26:44;101662.00;;;21.80
19282;BMP180;9774;52.034;5.342;2022-10-31T11:29:15;101649.00;;;21.80
19282;BMP180;9774;52.034;5.342;2022-10-31T11:31:45;101652.00;;;21.80
19282;BMP180;9774;52.034;5.342;2022-10-31T11:34:23;101643.00;;;21.80
19282;BMP180;9774;52.034;5.342;2022-10-31T11:36:53;101651.00;;;21.90
19282;BMP180;9774;52.034;5.342;2022-10-31T11:39:22;101637.00;;;21.90
19282;BMP180;9774;52.034;5.342;2022-10-31T11:41:52;101639.00;;;21.90
19282;BMP180;9774;52.034;5.342;2022-10-31T11:44:21;101643.00;;;21.90
19282;BMP180;9774;52.034;5.342;2022-10-31T11:46:52;101621.00;;;21.90
19282;BMP180;9774;52.034;5.342;2022-10-31T11:49:29;101616.00;;;21.90
19282;BMP180;9774;52.034;5.342;2022-10-31T11:52:00;101599.00;;;22.00
19282;BMP180;9774;52.034;5.342;2022-10-31T11:54:32;101587.00;;;21.90
19282;BMP180;9774;52.034;5.342;2022-10-31T11:57:00;101583.00;;;22.00
19282;BMP180;9774;52.034;5.342;2022-10-31T11:59:30;101563.00;;;22.00
19282;BMP180;9774;52.034;5.342;2022-10-31T12:02:00;101563.00;;;22.00
19282;BMP180;9774;52.034;5.342;2022-10-31T12:04:36;101579.00;;;21.90
19282;BMP180;9774;52.034;5.342;2022-10-31T12:07:04;101565.00;;;22.00
19282;BMP180;9774;52.034;5.342;2022-10-31T12:09:34;101564.00;;;21.90
19282;BMP180;9774;52.034;5.342;2022-10-31T12:12:17;101549.00;;;21.90
19282;BMP180;9774;52.034;5.342;2022-10-31T12:14:56;101547.00;;;21.90
19282;BMP180;9774;52.034;5.342;2022-10-31T12:17:34;101545.00;;;21.90
19282;BMP180;9774;52.034;5.342;2022-10-31T12:20:11;101541.00;;;21.90
19282;BMP180;9774;52.034;5.342;2022-10-31T12:22:58;101535.00;;;22.00
19282;BMP180;9774;52.034;5.342;2022-10-31T12:25:39;101526.00;;;22.00
19282;BMP180;9774;52.034;5.342;2022-10-31T12:28:29;101511.00;;;22.00
19282;BMP180;9774;52.034;5.342;2022-10-31T12:31:09;101504.00;;;22.10
19282;BMP180;9774;52.034;5.342;2022-10-31T12:33:51;101521.00;;;22.20
19282;BMP180;9774;52.034;5.342;2022-10-31T12:36:33;101514.00;;;22.20
19282;BMP180;9774;52.034;5.342;2022-10-31T12:39:12;101502.00;;;22.30
19282;BMP180;9774;52.034;5.342;2022-10-31T12:41:49;101484.00;;;22.40
19282;BMP180;9774;52.034;5.342;2022-10-31T12:44:44;101481.00;;;22.40
19282;BMP180;9774;52.034;5.342;2022-10-31T12:47:40;101475.00;;;22.40
19282;BMP180;9774;52.034;5.342;2022-10-31T12:50:22;101484.00;;;22.50
19282;BMP180;9774;52.034;5.342;2022-10-31T12:53:00;101478.00;;;22.50
19282;BMP180;9774;52.034;5.342;2022-10-31T12:55:39;101470.00;;;22.60
19282;BMP180;9774;52.034;5.342;2022-10-31T12:58:10;101461.00;;;22.60
19282;BMP180;9774;52.034;5.342;2022-10-31T13:00:44;101449.00;;;22.60
19282;BMP180;9774;52.034;5.342;2022-10-31T13:03:23;101456.00;;;22.60
19282;BMP180;9774;52.034;5.342;2022-10-31T13:05:56;101457.00;;;22.60
19282;BMP180;9774;52.034;5.342;2022-10-31T13:08:28;101439.00;;;22.60
19282;BMP180;9774;52.034;5.342;2022-10-31T13:11:02;101436.00;;;22.60
19282;BMP180;9774;52.034;5.342;2022-10-31T13:13:37;101429.00;;;22.70
19282;BMP180;9774;52.034;5.342;2022-10-31T13:16:10;101429.00;;;22.70
19282;BMP180;9774;52.034;5.342;2022-10-31T13:18:42;101424.00;;;22.70
19282;BMP180;9774;52.034;5.342;2022-10-31T13:21:15;101416.00;;;22.80
19282;BMP180;9774;52.034;5.342;2022-10-31T13:23:47;101405.00;;;23.00
19282;BMP180;9774;52.034;5.342;2022-10-31T13:26:22;101405.00;;;23.40
19282;BMP180;9774;52.034;5.342;2022-10-31T13:28:57;101408.00;;;23.80
19282;BMP180;9774;52.034;5.342;2022-10-31T13:31:26;101410.00;;;24.20
19282;BMP180;9774;52.034;5.342;2022-10-31T13:33:55;101390.00;;;24.30
19282;BMP180;9774;52.034;5.342;2022-10-31T13:36:31;101386.00;;;24.40
19282;BMP180;9774;52.034;5.342;2022-10-31T13:39:08;101382.00;;;24.50
19282;BMP180;9774;52.034;5.342;2022-10-31T13:41:44;101373.00;;;24.50
19282;BMP180;9774;52.034;5.342;2022-10-31T13:44:15;101366.00;;;24.50
19282;BMP180;9774;52.034;5.342;2022-10-31T13:46:45;101370.00;;;24.50
19282;BMP180;9774;52.034;5.342;2022-10-31T13:49:38;101364.00;;;24.30
19282;BMP180;9774;52.034;5.342;2022-10-31T13:52:13;101357.00;;;24.40
19282;BMP180;9774;52.034;5.342;2022-10-31T13:54:44;101349.00;;;24.30
19282;BMP180;9774;52.034;5.342;2022-10-31T13:57:21;101337.00;;;24.20
19282;BMP180;9774;52.034;5.342;2022-10-31T13:59:51;101338.00;;;24.20
19282;BMP180;9774;52.034;5.342;2022-10-31T14:02:25;101327.00;;;24.20
19282;BMP180;9774;52.034;5.342;2022-10-31T14:04:56;101336.00;;;24.10
19282;BMP180;9774;52.034;5.342;2022-10-31T14:07:25;101327.00;;;24.00
19282;BMP180;9774;52.034;5.342;2022-10-31T14:09:56;101329.00;;;24.00
19282;BMP180;9774;52.034;5.342;2022-10-31T14:12:28;101322.00;;;23.90
19282;BMP180;9774;52.034;5.342;2022-10-31T14:15:02;101320.00;;;23.80
19282;BMP180;9774;52.034;5.342;2022-10-31T14:17:35;101326.00;;;23.80
19282;BMP180;9774;52.034;5.342;2022-10-31T14:20:31;101317.00;;;23.60
19282;BMP180;9774;52.034;5.342;2022-10-31T14:23:11;101309.00;;;23.60
19282;BMP180;9774;52.034;5.342;2022-10-31T14:25:39;101306.00;;;23.60
19282;BMP180;9774;52.034;5.342;2022-10-31T14:28:20;101299.00;;;23.40
19282;BMP180;9774;52.034;5.342;2022-10-31T14:30:53;101294.00;;;23.40
19282;BMP180;9774;52.034;5.342;2022-10-31T14:33:20;101283.00;;;23.40
19282;BMP180;9774;52.034;5.342;2022-10-31T14:35:54;101285.00;;;23.40
19282;BMP180;9774;52.034;5.342;2022-10-31T14:38:41;101280.00;;;23.30